Detroit, Michigan
Traffic Map
Current Weather Conditions
Detroit, Michigan
Overcast
Overcast
12°
Feels Like: 12°
Wind Chill: 12° Ceiling: 1000
Heat Index: 12° Visibility: 10mi
Dew Point: 11° Wind: 7mph
Humidity: 94% Direction: 340° (NNW)
Pressure: 29.93in Gusts: 0mph
Raw Report DataCYQG 301200Z 34006KT 10SM OVC010 12/11 A2993 RMK SC8 SLP136
Traffic Incident Summary
Active as of:
Severity:
Category:
InformationThere was an issue retrieving the traffic information for this location. Please try a different location or try again shortly.
Advertisements
Track Severe Weather on mobile